sensor_id;sensor_type;location;lat;lon;timestamp;P1;durP1;ratioP1;P2;durP2;ratioP2
48403;SDS011;34202;52.536;6.042;2022-11-23T00:04:06;7.40;;;3.90;;
48403;SDS011;34202;52.536;6.042;2022-11-23T00:09:09;6.10;;;4.20;;
48403;SDS011;34202;52.536;6.042;2022-11-23T00:14:10;6.40;;;4.00;;
48403;SDS011;34202;52.536;6.042;2022-11-23T00:19:10;6.80;;;3.50;;
48403;SDS011;34202;52.536;6.042;2022-11-23T00:24:11;7.60;;;4.40;;
48403;SDS011;34202;52.536;6.042;2022-11-23T00:29:12;16.60;;;6.00;;
48403;SDS011;34202;52.536;6.042;2022-11-23T00:34:12;9.40;;;4.40;;
48403;SDS011;34202;52.536;6.042;2022-11-23T00:39:12;9.10;;;4.50;;
48403;SDS011;34202;52.536;6.042;2022-11-23T00:44:13;8.60;;;4.10;;
48403;SDS011;34202;52.536;6.042;2022-11-23T00:49:13;7.50;;;4.80;;
48403;SDS011;34202;52.536;6.042;2022-11-23T00:54:13;8.10;;;5.00;;
48403;SDS011;34202;52.536;6.042;2022-11-23T00:59:14;9.10;;;4.60;;
48403;SDS011;34202;52.536;6.042;2022-11-23T01:04:14;7.00;;;4.90;;
48403;SDS011;34202;52.536;6.042;2022-11-23T01:09:15;15.40;;;5.10;;
48403;SDS011;34202;52.536;6.042;2022-11-23T01:14:17;9.50;;;5.90;;
48403;SDS011;34202;52.536;6.042;2022-11-23T01:19:18;15.00;;;7.30;;
48403;SDS011;34202;52.536;6.042;2022-11-23T01:24:20;11.00;;;5.60;;
48403;SDS011;34202;52.536;6.042;2022-11-23T01:29:22;7.80;;;5.80;;
48403;SDS011;34202;52.536;6.042;2022-11-23T01:34:22;13.40;;;6.60;;
48403;SDS011;34202;52.536;6.042;2022-11-23T01:39:23;11.60;;;7.00;;
48403;SDS011;34202;52.536;6.042;2022-11-23T01:44:30;11.60;;;7.20;;
48403;SDS011;34202;52.536;6.042;2022-11-23T01:49:34;12.20;;;8.10;;
48403;SDS011;34202;52.536;6.042;2022-11-23T01:59:45;17.50;;;11.60;;
48403;SDS011;34202;52.536;6.042;2022-11-23T02:04:48;17.90;;;11.40;;
48403;SDS011;34202;52.536;6.042;2022-11-23T02:09:51;25.00;;;14.20;;
48403;SDS011;34202;52.536;6.042;2022-11-23T02:14:52;20.80;;;13.90;;
48403;SDS011;34202;52.536;6.042;2022-11-23T02:25:08;26.40;;;15.50;;
48403;SDS011;34202;52.536;6.042;2022-11-23T02:30:18;19.80;;;14.60;;
48403;SDS011;34202;52.536;6.042;2022-11-23T02:35:19;23.70;;;16.00;;
48403;SDS011;34202;52.536;6.042;2022-11-23T02:40:25;26.90;;;17.70;;
48403;SDS011;34202;52.536;6.042;2022-11-23T02:45:30;21.60;;;15.90;;
48403;SDS011;34202;52.536;6.042;2022-11-23T02:50:36;24.40;;;18.40;;
48403;SDS011;34202;52.536;6.042;2022-11-23T02:55:37;24.60;;;18.40;;
48403;SDS011;34202;52.536;6.042;2022-11-23T03:00:37;22.80;;;17.60;;
48403;SDS011;34202;52.536;6.042;2022-11-23T03:05:38;25.10;;;19.10;;
48403;SDS011;34202;52.536;6.042;2022-11-23T03:10:38;23.30;;;18.00;;
48403;SDS011;34202;52.536;6.042;2022-11-23T03:15:38;26.40;;;18.90;;
48403;SDS011;34202;52.536;6.042;2022-11-23T03:20:39;26.80;;;18.30;;
48403;SDS011;34202;52.536;6.042;2022-11-23T03:25:39;19.20;;;16.90;;
48403;SDS011;34202;52.536;6.042;2022-11-23T03:30:41;24.40;;;19.20;;
48403;SDS011;34202;52.536;6.042;2022-11-23T03:35:42;21.20;;;17.10;;
48403;SDS011;34202;52.536;6.042;2022-11-23T03:40:44;25.80;;;18.30;;
48403;SDS011;34202;52.536;6.042;2022-11-23T03:45:47;23.90;;;19.40;;
48403;SDS011;34202;52.536;6.042;2022-11-23T03:50:47;24.50;;;17.10;;
48403;SDS011;34202;52.536;6.042;2022-11-23T03:55:48;20.00;;;16.80;;
48403;SDS011;34202;52.536;6.042;2022-11-23T04:00:48;18.80;;;15.60;;
48403;SDS011;34202;52.536;6.042;2022-11-23T04:05:49;23.00;;;16.60;;
48403;SDS011;34202;52.536;6.042;2022-11-23T04:10:49;27.70;;;17.80;;
48403;SDS011;34202;52.536;6.042;2022-11-23T04:15:49;26.60;;;15.10;;
48403;SDS011;34202;52.536;6.042;2022-11-23T04:20:50;21.00;;;14.80;;
48403;SDS011;34202;52.536;6.042;2022-11-23T04:25:50;22.60;;;14.50;;
48403;SDS011;34202;52.536;6.042;2022-11-23T04:30:50;17.90;;;13.80;;
48403;SDS011;34202;52.536;6.042;2022-11-23T04:35:51;15.80;;;12.70;;
48403;SDS011;34202;52.536;6.042;2022-11-23T04:40:51;19.60;;;12.90;;
48403;SDS011;34202;52.536;6.042;2022-11-23T04:45:52;15.00;;;11.30;;
48403;SDS011;34202;52.536;6.042;2022-11-23T04:50:52;14.50;;;10.60;;
48403;SDS011;34202;52.536;6.042;2022-11-23T04:55:53;12.90;;;9.70;;
48403;SDS011;34202;52.536;6.042;2022-11-23T05:00:53;15.20;;;10.20;;
48403;SDS011;34202;52.536;6.042;2022-11-23T05:05:56;15.10;;;9.30;;
48403;SDS011;34202;52.536;6.042;2022-11-23T05:10:57;10.20;;;7.00;;
48403;SDS011;34202;52.536;6.042;2022-11-23T05:15:57;15.60;;;8.10;;
48403;SDS011;34202;52.536;6.042;2022-11-23T05:20:58;12.70;;;6.10;;
48403;SDS011;34202;52.536;6.042;2022-11-23T05:25:58;9.70;;;6.30;;
48403;SDS011;34202;52.536;6.042;2022-11-23T05:30:59;9.90;;;5.90;;
48403;SDS011;34202;52.536;6.042;2022-11-23T05:35:59;10.40;;;4.80;;
48403;SDS011;34202;52.536;6.042;2022-11-23T05:40:59;8.60;;;4.90;;
48403;SDS011;34202;52.536;6.042;2022-11-23T05:46:00;13.80;;;6.40;;
48403;SDS011;34202;52.536;6.042;2022-11-23T05:51:01;14.80;;;5.60;;
48403;SDS011;34202;52.536;6.042;2022-11-23T05:56:01;10.20;;;5.70;;
48403;SDS011;34202;52.536;6.042;2022-11-23T06:01:02;10.60;;;5.40;;
48403;SDS011;34202;52.536;6.042;2022-11-23T06:06:02;8.60;;;5.50;;
48403;SDS011;34202;52.536;6.042;2022-11-23T06:11:03;8.90;;;5.20;;
48403;SDS011;34202;52.536;6.042;2022-11-23T06:16:03;14.70;;;6.00;;
48403;SDS011;34202;52.536;6.042;2022-11-23T06:21:04;15.20;;;5.30;;
48403;SDS011;34202;52.536;6.042;2022-11-23T06:26:05;7.80;;;5.00;;
48403;SDS011;34202;52.536;6.042;2022-11-23T06:31:05;8.30;;;4.60;;
48403;SDS011;34202;52.536;6.042;2022-11-23T06:36:06;10.80;;;4.60;;
48403;SDS011;34202;52.536;6.042;2022-11-23T06:41:10;13.00;;;5.60;;
48403;SDS011;34202;52.536;6.042;2022-11-23T06:46:10;11.70;;;4.30;;
48403;SDS011;34202;52.536;6.042;2022-11-23T06:51:11;11.80;;;5.60;;
48403;SDS011;34202;52.536;6.042;2022-11-23T06:56:12;12.00;;;4.60;;
48403;SDS011;34202;52.536;6.042;2022-11-23T07:01:12;11.30;;;4.00;;
48403;SDS011;34202;52.536;6.042;2022-11-23T07:06:13;10.90;;;4.80;;
48403;SDS011;34202;52.536;6.042;2022-11-23T07:11:13;15.20;;;4.70;;
48403;SDS011;34202;52.536;6.042;2022-11-23T07:16:14;13.70;;;4.80;;
48403;SDS011;34202;52.536;6.042;2022-11-23T07:21:14;15.10;;;4.20;;
48403;SDS011;34202;52.536;6.042;2022-11-23T07:26:14;9.90;;;3.50;;
48403;SDS011;34202;52.536;6.042;2022-11-23T07:31:15;12.90;;;4.60;;
48403;SDS011;34202;52.536;6.042;2022-11-23T07:36:15;10.20;;;4.30;;
48403;SDS011;34202;52.536;6.042;2022-11-23T07:41:15;10.60;;;3.60;;
48403;SDS011;34202;52.536;6.042;2022-11-23T07:46:16;11.80;;;3.10;;
48403;SDS011;34202;52.536;6.042;2022-11-23T07:51:16;13.80;;;3.60;;
48403;SDS011;34202;52.536;6.042;2022-11-23T07:56:18;12.50;;;5.40;;
48403;SDS011;34202;52.536;6.042;2022-11-23T08:01:18;7.30;;;3.30;;
48403;SDS011;34202;52.536;6.042;2022-11-23T08:06:19;10.90;;;3.00;;
48403;SDS011;34202;52.536;6.042;2022-11-23T08:11:19;9.80;;;2.90;;
48403;SDS011;34202;52.536;6.042;2022-11-23T08:16:21;10.60;;;2.90;;
48403;SDS011;34202;52.536;6.042;2022-11-23T08:21:21;11.30;;;2.50;;
48403;SDS011;34202;52.536;6.042;2022-11-23T08:26:22;10.90;;;3.00;;
48403;SDS011;34202;52.536;6.042;2022-11-23T08:31:22;8.20;;;2.60;;
48403;SDS011;34202;52.536;6.042;2022-11-23T08:36:22;9.70;;;3.10;;
48403;SDS011;34202;52.536;6.042;2022-11-23T08:41:23;12.20;;;4.20;;
48403;SDS011;34202;52.536;6.042;2022-11-23T08:46:23;12.30;;;3.50;;
48403;SDS011;34202;52.536;6.042;2022-11-23T08:51:23;16.30;;;3.50;;
48403;SDS011;34202;52.536;6.042;2022-11-23T08:56:24;12.50;;;3.30;;
48403;SDS011;34202;52.536;6.042;2022-11-23T09:01:24;11.90;;;3.50;;
48403;SDS011;34202;52.536;6.042;2022-11-23T09:06:25;9.70;;;3.50;;
48403;SDS011;34202;52.536;6.042;2022-11-23T09:11:28;13.70;;;3.60;;
48403;SDS011;34202;52.536;6.042;2022-11-23T09:16:28;11.30;;;2.90;;
48403;SDS011;34202;52.536;6.042;2022-11-23T09:21:28;12.20;;;3.10;;
48403;SDS011;34202;52.536;6.042;2022-11-23T09:26:32;7.60;;;2.20;;
48403;SDS011;34202;52.536;6.042;2022-11-23T09:31:36;10.20;;;2.60;;
48403;SDS011;34202;52.536;6.042;2022-11-23T09:36:37;18.30;;;3.10;;
48403;SDS011;34202;52.536;6.042;2022-11-23T09:52:33;17.90;;;2.80;;
48403;SDS011;34202;52.536;6.042;2022-11-23T09:57:35;7.80;;;2.80;;
48403;SDS011;34202;52.536;6.042;2022-11-23T10:02:39;7.80;;;2.00;;
48403;SDS011;34202;52.536;6.042;2022-11-23T10:07:46;13.00;;;2.90;;
48403;SDS011;34202;52.536;6.042;2022-11-23T10:18:26;16.80;;;3.70;;
48403;SDS011;34202;52.536;6.042;2022-11-23T10:23:41;13.60;;;3.10;;
48403;SDS011;34202;52.536;6.042;2022-11-23T10:28:44;12.60;;;3.00;;
48403;SDS011;34202;52.536;6.042;2022-11-23T10:44:25;10.00;;;2.70;;
48403;SDS011;34202;52.536;6.042;2022-11-23T10:49:28;14.30;;;2.60;;
48403;SDS011;34202;52.536;6.042;2022-11-23T10:54:32;19.20;;;4.10;;
48403;SDS011;34202;52.536;6.042;2022-11-23T10:59:42;16.50;;;4.60;;
48403;SDS011;34202;52.536;6.042;2022-11-23T11:04:43;10.60;;;2.50;;
48403;SDS011;34202;52.536;6.042;2022-11-23T11:09:49;10.90;;;3.30;;
48403;SDS011;34202;52.536;6.042;2022-11-23T11:14:58;15.50;;;3.00;;
48403;SDS011;34202;52.536;6.042;2022-11-23T11:20:22;10.40;;;2.20;;
48403;SDS011;34202;52.536;6.042;2022-11-23T11:25:26;15.80;;;3.60;;
48403;SDS011;34202;52.536;6.042;2022-11-23T11:30:44;12.60;;;2.90;;
48403;SDS011;34202;52.536;6.042;2022-11-23T11:35:58;12.20;;;2.20;;
48403;SDS011;34202;52.536;6.042;2022-11-23T11:41:05;9.90;;;2.50;;
48403;SDS011;34202;52.536;6.042;2022-11-23T11:46:11;9.70;;;2.30;;
48403;SDS011;34202;52.536;6.042;2022-11-23T11:56:40;14.90;;;2.20;;
48403;SDS011;34202;52.536;6.042;2022-11-23T12:06:57;6.70;;;1.60;;
48403;SDS011;34202;52.536;6.042;2022-11-23T12:12:07;6.10;;;1.60;;
48403;SDS011;34202;52.536;6.042;2022-11-23T12:22:38;10.70;;;2.60;;
48403;SDS011;34202;52.536;6.042;2022-11-23T12:27:46;12.00;;;2.00;;
48403;SDS011;34202;52.536;6.042;2022-11-23T12:38:28;10.30;;;1.90;;
48403;SDS011;34202;52.536;6.042;2022-11-23T12:43:40;9.10;;;1.70;;
48403;SDS011;34202;52.536;6.042;2022-11-23T12:48:58;12.00;;;2.00;;
48403;SDS011;34202;52.536;6.042;2022-11-23T12:59:16;8.60;;;1.70;;
48403;SDS011;34202;52.536;6.042;2022-11-23T13:14:57;7.20;;;1.40;;
48403;SDS011;34202;52.536;6.042;2022-11-23T13:46:32;8.30;;;1.70;;
48403;SDS011;34202;52.536;6.042;2022-11-23T13:51:35;6.90;;;1.70;;
48403;SDS011;34202;52.536;6.042;2022-11-23T13:56:40;7.20;;;1.70;;
48403;SDS011;34202;52.536;6.042;2022-11-23T14:07:11;9.20;;;2.90;;
48403;SDS011;34202;52.536;6.042;2022-11-23T14:23:27;8.90;;;1.80;;
48403;SDS011;34202;52.536;6.042;2022-11-23T14:45:15;4.40;;;1.20;;
48403;SDS011;34202;52.536;6.042;2022-11-23T14:55:28;8.50;;;1.70;;
48403;SDS011;34202;52.536;6.042;2022-11-23T15:00:34;8.10;;;2.10;;
48403;SDS011;34202;52.536;6.042;2022-11-23T15:05:38;11.00;;;1.50;;
48403;SDS011;34202;52.536;6.042;2022-11-23T15:15:50;6.60;;;2.30;;
48403;SDS011;34202;52.536;6.042;2022-11-23T15:20:52;11.30;;;1.90;;
48403;SDS011;34202;52.536;6.042;2022-11-23T15:25:53;5.60;;;1.40;;
48403;SDS011;34202;52.536;6.042;2022-11-23T15:30:54;5.80;;;1.80;;
48403;SDS011;34202;52.536;6.042;2022-11-23T15:35:55;6.40;;;1.80;;
48403;SDS011;34202;52.536;6.042;2022-11-23T15:40:56;3.90;;;1.40;;
48403;SDS011;34202;52.536;6.042;2022-11-23T15:46:04;10.90;;;1.90;;
48403;SDS011;34202;52.536;6.042;2022-11-23T15:51:27;11.70;;;1.90;;
48403;SDS011;34202;52.536;6.042;2022-11-23T15:56:39;8.00;;;2.30;;
48403;SDS011;34202;52.536;6.042;2022-11-23T16:01:44;8.00;;;2.70;;
48403;SDS011;34202;52.536;6.042;2022-11-23T16:06:46;8.20;;;1.80;;
48403;SDS011;34202;52.536;6.042;2022-11-23T16:11:46;5.00;;;1.90;;
48403;SDS011;34202;52.536;6.042;2022-11-23T16:16:57;6.90;;;1.90;;
48403;SDS011;34202;52.536;6.042;2022-11-23T16:22:00;3.30;;;1.70;;
48403;SDS011;34202;52.536;6.042;2022-11-23T16:27:13;8.30;;;2.00;;
48403;SDS011;34202;52.536;6.042;2022-11-23T16:32:21;7.00;;;2.00;;
48403;SDS011;34202;52.536;6.042;2022-11-23T16:37:23;5.60;;;1.80;;
48403;SDS011;34202;52.536;6.042;2022-11-23T16:42:25;7.50;;;1.90;;
48403;SDS011;34202;52.536;6.042;2022-11-23T16:47:26;7.50;;;2.10;;
48403;SDS011;34202;52.536;6.042;2022-11-23T16:52:27;4.20;;;2.00;;
48403;SDS011;34202;52.536;6.042;2022-11-23T16:57:28;12.60;;;3.60;;
48403;SDS011;34202;52.536;6.042;2022-11-23T17:02:30;10.00;;;2.30;;
48403;SDS011;34202;52.536;6.042;2022-11-23T17:07:30;8.30;;;2.70;;
48403;SDS011;34202;52.536;6.042;2022-11-23T17:12:30;3.00;;;1.50;;
48403;SDS011;34202;52.536;6.042;2022-11-23T17:17:31;7.40;;;2.30;;
48403;SDS011;34202;52.536;6.042;2022-11-23T17:22:32;5.10;;;2.10;;
48403;SDS011;34202;52.536;6.042;2022-11-23T17:27:33;7.70;;;2.40;;
48403;SDS011;34202;52.536;6.042;2022-11-23T17:32:36;3.20;;;1.90;;
48403;SDS011;34202;52.536;6.042;2022-11-23T17:37:37;7.50;;;2.00;;
48403;SDS011;34202;52.536;6.042;2022-11-23T17:42:37;17.00;;;3.40;;
48403;SDS011;34202;52.536;6.042;2022-11-23T17:47:37;9.50;;;2.60;;
48403;SDS011;34202;52.536;6.042;2022-11-23T17:52:39;7.30;;;3.00;;
48403;SDS011;34202;52.536;6.042;2022-11-23T17:57:43;7.20;;;3.00;;
48403;SDS011;34202;52.536;6.042;2022-11-23T18:02:43;6.70;;;2.90;;
48403;SDS011;34202;52.536;6.042;2022-11-23T18:07:44;3.90;;;2.60;;
48403;SDS011;34202;52.536;6.042;2022-11-23T18:12:44;7.30;;;2.70;;
48403;SDS011;34202;52.536;6.042;2022-11-23T18:17:45;6.20;;;3.30;;
48403;SDS011;34202;52.536;6.042;2022-11-23T18:22:45;7.20;;;3.80;;
48403;SDS011;34202;52.536;6.042;2022-11-23T18:27:46;6.90;;;4.20;;
48403;SDS011;34202;52.536;6.042;2022-11-23T18:32:46;5.30;;;3.80;;
48403;SDS011;34202;52.536;6.042;2022-11-23T18:37:46;7.20;;;5.30;;
48403;SDS011;34202;52.536;6.042;2022-11-23T18:42:47;9.60;;;5.70;;
48403;SDS011;34202;52.536;6.042;2022-11-23T18:47:47;8.10;;;4.70;;
48403;SDS011;34202;52.536;6.042;2022-11-23T18:52:47;5.70;;;4.40;;
48403;SDS011;34202;52.536;6.042;2022-11-23T18:57:48;6.30;;;4.00;;
48403;SDS011;34202;52.536;6.042;2022-11-23T19:02:53;6.50;;;4.60;;
48403;SDS011;34202;52.536;6.042;2022-11-23T19:07:58;8.00;;;4.60;;
48403;SDS011;34202;52.536;6.042;2022-11-23T19:13:03;6.30;;;5.20;;
48403;SDS011;34202;52.536;6.042;2022-11-23T19:18:03;4.60;;;4.20;;
48403;SDS011;34202;52.536;6.042;2022-11-23T19:23:04;9.70;;;5.80;;
48403;SDS011;34202;52.536;6.042;2022-11-23T19:28:04;7.60;;;5.60;;
48403;SDS011;34202;52.536;6.042;2022-11-23T19:33:04;7.70;;;5.10;;
48403;SDS011;34202;52.536;6.042;2022-11-23T19:38:05;6.70;;;5.50;;
48403;SDS011;34202;52.536;6.042;2022-11-23T19:43:05;12.10;;;7.20;;
48403;SDS011;34202;52.536;6.042;2022-11-23T19:48:05;9.80;;;7.00;;
48403;SDS011;34202;52.536;6.042;2022-11-23T19:53:06;8.60;;;6.40;;
48403;SDS011;34202;52.536;6.042;2022-11-23T19:58:07;11.30;;;7.10;;
48403;SDS011;34202;52.536;6.042;2022-11-23T20:03:07;13.60;;;8.00;;
48403;SDS011;34202;52.536;6.042;2022-11-23T20:08:07;13.40;;;8.50;;
48403;SDS011;34202;52.536;6.042;2022-11-23T20:13:08;10.50;;;6.90;;
48403;SDS011;34202;52.536;6.042;2022-11-23T20:18:08;11.40;;;6.80;;
48403;SDS011;34202;52.536;6.042;2022-11-23T20:23:11;12.80;;;7.70;;
48403;SDS011;34202;52.536;6.042;2022-11-23T20:28:13;8.70;;;7.10;;
48403;SDS011;34202;52.536;6.042;2022-11-23T20:33:14;12.60;;;7.80;;
48403;SDS011;34202;52.536;6.042;2022-11-23T20:38:14;14.00;;;8.00;;
48403;SDS011;34202;52.536;6.042;2022-11-23T20:43:16;11.30;;;6.90;;
48403;SDS011;34202;52.536;6.042;2022-11-23T20:48:16;13.10;;;9.00;;
48403;SDS011;34202;52.536;6.042;2022-11-23T20:53:17;12.10;;;6.50;;
48403;SDS011;34202;52.536;6.042;2022-11-23T20:58:17;13.10;;;6.90;;
48403;SDS011;34202;52.536;6.042;2022-11-23T21:03:18;11.70;;;6.70;;
48403;SDS011;34202;52.536;6.042;2022-11-23T21:08:18;13.60;;;6.40;;
48403;SDS011;34202;52.536;6.042;2022-11-23T21:13:24;11.30;;;5.30;;
48403;SDS011;34202;52.536;6.042;2022-11-23T21:18:43;9.20;;;5.80;;
48403;SDS011;34202;52.536;6.042;2022-11-23T21:23:43;7.00;;;5.10;;
48403;SDS011;34202;52.536;6.042;2022-11-23T21:28:44;14.00;;;5.60;;
48403;SDS011;34202;52.536;6.042;2022-11-23T21:33:44;17.90;;;6.50;;
48403;SDS011;34202;52.536;6.042;2022-11-23T21:38:44;14.60;;;6.30;;
48403;SDS011;34202;52.536;6.042;2022-11-23T21:43:45;7.00;;;4.10;;
48403;SDS011;34202;52.536;6.042;2022-11-23T21:48:55;10.90;;;5.60;;
48403;SDS011;34202;52.536;6.042;2022-11-23T21:58:58;8.30;;;4.70;;
48403;SDS011;34202;52.536;6.042;2022-11-23T22:03:59;17.10;;;6.10;;
48403;SDS011;34202;52.536;6.042;2022-11-23T22:09:01;9.60;;;4.10;;
48403;SDS011;34202;52.536;6.042;2022-11-23T22:14:05;16.10;;;5.70;;
48403;SDS011;34202;52.536;6.042;2022-11-23T22:19:09;13.60;;;5.50;;
48403;SDS011;34202;52.536;6.042;2022-11-23T22:24:11;15.40;;;5.40;;
48403;SDS011;34202;52.536;6.042;2022-11-23T22:29:16;15.00;;;5.40;;
48403;SDS011;34202;52.536;6.042;2022-11-23T22:34:17;16.50;;;6.00;;
48403;SDS011;34202;52.536;6.042;2022-11-23T22:39:17;17.80;;;6.10;;
48403;SDS011;34202;52.536;6.042;2022-11-23T22:44:17;12.20;;;4.90;;
48403;SDS011;34202;52.536;6.042;2022-11-23T22:49:18;12.70;;;4.80;;
48403;SDS011;34202;52.536;6.042;2022-11-23T22:54:18;16.60;;;4.50;;
48403;SDS011;34202;52.536;6.042;2022-11-23T22:59:18;17.60;;;5.10;;
48403;SDS011;34202;52.536;6.042;2022-11-23T23:04:19;16.70;;;4.40;;
48403;SDS011;34202;52.536;6.042;2022-11-23T23:09:19;24.80;;;5.10;;
48403;SDS011;34202;52.536;6.042;2022-11-23T23:14:20;16.80;;;3.90;;
48403;SDS011;34202;52.536;6.042;2022-11-23T23:19:20;21.00;;;5.90;;
48403;SDS011;34202;52.536;6.042;2022-11-23T23:24:21;20.00;;;4.00;;
48403;SDS011;34202;52.536;6.042;2022-11-23T23:29:21;15.60;;;4.30;;
48403;SDS011;34202;52.536;6.042;2022-11-23T23:34:21;23.40;;;3.70;;
48403;SDS011;34202;52.536;6.042;2022-11-23T23:39:22;17.40;;;5.70;;
48403;SDS011;34202;52.536;6.042;2022-11-23T23:44:22;23.90;;;7.00;;
48403;SDS011;34202;52.536;6.042;2022-11-23T23:49:22;30.00;;;6.50;;
48403;SDS011;34202;52.536;6.042;2022-11-23T23:54:23;20.80;;;5.50;;
48403;SDS011;34202;52.536;6.042;2022-11-23T23:59:23;20.10;;;3.70;;
